createdAt,value
2023-01-30T00:00:43.472Z,-0.60
2023-01-30T00:04:46.520Z,-0.50
2023-01-30T00:08:51.055Z,-0.40
2023-01-30T00:12:57.237Z,-0.30
2023-01-30T00:17:00.607Z,-0.30
2023-01-30T00:21:07.011Z,-0.20
2023-01-30T00:25:11.932Z,-0.20
2023-01-30T00:29:14.989Z,-0.20
2023-01-30T00:33:18.848Z,-0.20
2023-01-30T00:37:21.978Z,-0.20
2023-01-30T00:41:47.308Z,-0.20
2023-01-30T00:46:12.480Z,-0.20
2023-01-30T00:50:17.665Z,-0.20
2023-01-30T00:54:24.988Z,-0.20
2023-01-30T00:58:31.987Z,-0.20
2023-01-30T01:02:36.234Z,-0.20
2023-01-30T01:06:39.902Z,-0.20
2023-01-30T01:10:42.940Z,-0.20
2023-01-30T01:14:51.237Z,-0.20
2023-01-30T01:18:55.913Z,-0.30
2023-01-30T01:22:59.456Z,-0.40
2023-01-30T01:27:02.568Z,-0.50
2023-01-30T01:31:11.600Z,-0.60
2023-01-30T01:35:14.844Z,-0.70
2023-01-30T01:39:20.767Z,-0.80
2023-01-30T01:43:30.431Z,-0.80
2023-01-30T01:47:38.999Z,-0.60
2023-01-30T01:51:46.645Z,-0.40
2023-01-30T01:55:53.133Z,-0.30
2023-01-30T02:00:02.328Z,-0.30
2023-01-30T02:04:10.356Z,-0.20
2023-01-30T02:08:15.911Z,-0.30
2023-01-30T02:12:22.915Z,-0.20
2023-01-30T02:16:26.111Z,-0.20
2023-01-30T02:20:41.538Z,-0.20
2023-01-30T02:25:21.372Z,-0.20
2023-01-30T02:30:22.551Z,-0.20
2023-01-30T02:34:47.213Z,-0.10
2023-01-30T02:38:59.296Z,-0.20
2023-01-30T02:43:14.943Z,-0.20
2023-01-30T02:47:25.546Z,-0.20
2023-01-30T02:51:32.882Z,-0.20
2023-01-30T02:55:42.530Z,-0.20
2023-01-30T02:59:50.943Z,-0.30
2023-01-30T03:04:08.340Z,-0.30
2023-01-30T03:08:25.262Z,-0.40
2023-01-30T03:12:42.027Z,-0.40
2023-01-30T03:16:46.200Z,-0.50
2023-01-30T03:20:50.110Z,-0.40
2023-01-30T03:24:55.678Z,-0.40
2023-01-30T03:28:59.065Z,-0.50
2023-01-30T03:33:02.214Z,-0.40
2023-01-30T03:37:05.992Z,-0.30
2023-01-30T03:41:10.659Z,-0.20
2023-01-30T03:45:16.699Z,-0.10
2023-01-30T03:49:22.372Z,0.00
2023-01-30T03:53:26.978Z,0.00
2023-01-30T03:57:31.946Z,0.10
2023-01-30T04:01:35.090Z,0.10
2023-01-30T04:05:39.228Z,0.10
2023-01-30T04:09:43.218Z,0.10
2023-01-30T04:13:47.861Z,0.10
2023-01-30T04:17:53.972Z,0.10
2023-01-30T04:21:57.038Z,0.10
2023-01-30T04:26:00.116Z,0.10
2023-01-30T04:30:05.004Z,0.10
2023-01-30T04:34:09.958Z,0.10
2023-01-30T04:38:14.204Z,0.10
2023-01-30T04:42:20.027Z,0.00
2023-01-30T04:46:24.719Z,0.00
2023-01-30T04:50:29.591Z,0.00
2023-01-30T04:54:36.941Z,0.00
2023-01-30T04:58:40.089Z,0.00
2023-01-30T05:02:45.310Z,0.10
2023-01-30T05:06:50.346Z,0.10
2023-01-30T05:10:53.499Z,0.20
2023-01-30T05:15:08.471Z,0.20
2023-01-30T05:19:14.012Z,0.20
2023-01-30T05:23:17.107Z,0.20
2023-01-30T05:27:20.892Z,0.30
2023-01-30T05:31:26.670Z,0.30
2023-01-30T05:35:33.998Z,0.20
2023-01-30T05:39:37.568Z,0.30
2023-01-30T05:43:40.869Z,0.20
2023-01-30T05:47:46.362Z,0.20
2023-01-30T05:51:55.999Z,0.20
2023-01-30T05:56:01.522Z,0.20
2023-01-30T06:00:07.560Z,0.10
2023-01-30T06:04:13.829Z,0.10
2023-01-30T06:08:18.342Z,0.10
2023-01-30T06:12:21.665Z,0.10
2023-01-30T06:16:24.943Z,0.10
2023-01-30T06:20:28.154Z,0.10
2023-01-30T06:24:35.267Z,0.10
2023-01-30T06:28:38.765Z,0.10
2023-01-30T06:32:45.804Z,0.10
2023-01-30T06:36:48.890Z,0.20
2023-01-30T06:40:55.309Z,0.30
2023-01-30T06:44:58.368Z,0.40
2023-01-30T06:49:01.447Z,0.50
2023-01-30T06:53:11.687Z,0.60
2023-01-30T06:57:16.178Z,0.70
2023-01-30T07:01:21.364Z,0.70
2023-01-30T07:05:24.567Z,0.70
2023-01-30T07:09:30.031Z,0.60
2023-01-30T07:13:34.456Z,0.60
2023-01-30T07:17:47.562Z,0.60
2023-01-30T07:21:50.647Z,0.60
2023-01-30T07:25:53.764Z,0.60
2023-01-30T07:30:01.456Z,0.60
2023-01-30T07:34:04.580Z,0.60
2023-01-30T07:38:07.675Z,0.60
2023-01-30T07:42:11.079Z,0.70
2023-01-30T07:46:15.562Z,0.70
2023-01-30T07:50:19.497Z,0.80
2023-01-30T07:54:23.105Z,0.90
2023-01-30T07:58:26.096Z,1.00
2023-01-30T08:02:30.934Z,1.10
2023-01-30T08:06:39.415Z,1.20
2023-01-30T08:10:42.695Z,1.30
2023-01-30T08:14:45.800Z,1.30
2023-01-30T08:18:50.750Z,1.30
2023-01-30T08:22:55.272Z,1.40
2023-01-30T08:26:58.379Z,1.40
2023-01-30T08:31:01.837Z,1.60
2023-01-30T08:35:08.941Z,1.70
2023-01-30T08:39:12.455Z,1.70
2023-01-30T08:43:15.548Z,1.80
2023-01-30T08:47:18.621Z,1.90
2023-01-30T08:51:26.034Z,2.00
2023-01-30T08:55:30.419Z,2.10
2023-01-30T08:59:36.391Z,2.20
2023-01-30T09:03:41.233Z,2.30
2023-01-30T09:07:50.282Z,2.60
2023-01-30T09:11:53.642Z,2.90
2023-01-30T09:15:56.679Z,3.00
2023-01-30T09:19:59.798Z,3.10
2023-01-30T09:24:04.440Z,3.10
2023-01-30T09:28:08.130Z,3.20
2023-01-30T09:32:14.184Z,3.10
2023-01-30T09:36:17.546Z,3.10
2023-01-30T09:40:26.271Z,3.10
2023-01-30T09:45:03.092Z,3.10
2023-01-30T09:49:17.829Z,3.00
2023-01-30T09:53:27.126Z,3.00
2023-01-30T09:57:42.842Z,2.90
2023-01-30T10:01:53.317Z,2.90
2023-01-30T10:06:00.104Z,2.70
2023-01-30T10:10:14.713Z,2.60
2023-01-30T10:14:47.561Z,2.50
2023-01-30T10:19:01.257Z,2.40
2023-01-30T10:23:44.853Z,2.40
2023-01-30T10:27:54.764Z,2.30
2023-01-30T10:32:08.392Z,2.30
2023-01-30T10:36:15.073Z,2.40
2023-01-30T10:40:24.293Z,2.40
2023-01-30T10:44:27.543Z,2.40
2023-01-30T10:48:59.733Z,2.40
2023-01-30T10:53:09.934Z,2.40
2023-01-30T10:57:25.300Z,2.40
2023-01-30T11:01:34.235Z,2.40
2023-01-30T11:05:47.122Z,2.40
2023-01-30T11:09:50.875Z,2.40
2023-01-30T11:14:04.258Z,2.40
2023-01-30T11:18:54.826Z,2.50
2023-01-30T11:22:41.754Z,2.50
2023-01-30T11:26:48.021Z,2.50
2023-01-30T11:30:55.966Z,2.50
2023-01-30T11:35:23.835Z,2.50
2023-01-30T11:39:34.968Z,2.60
2023-01-30T11:43:40.684Z,2.60
2023-01-30T11:47:57.376Z,2.60
2023-01-30T11:52:02.045Z,2.50
2023-01-30T11:56:21.285Z,2.60
2023-01-30T12:00:29.574Z,2.60
2023-01-30T12:04:34.061Z,2.60
2023-01-30T12:08:42.223Z,2.60
2023-01-30T12:12:54.496Z,2.60
2023-01-30T12:17:10.732Z,2.60
2023-01-30T12:21:25.141Z,2.70
2023-01-30T12:25:35.776Z,2.70
2023-01-30T12:29:58.257Z,2.70
2023-01-30T12:34:02.915Z,2.70
2023-01-30T12:38:15.589Z,2.60
2023-01-30T12:42:49.805Z,2.60
2023-01-30T12:47:11.435Z,2.60
2023-01-30T12:51:28.363Z,2.70
2023-01-30T12:55:43.502Z,2.60
2023-01-30T13:00:02.359Z,2.70
2023-01-30T13:04:25.422Z,2.70
2023-01-30T13:08:58.116Z,2.70
2023-01-30T13:13:12.351Z,2.80
2023-01-30T13:17:33.186Z,2.70
2023-01-30T13:21:46.585Z,2.80
2023-01-30T13:26:00.196Z,2.80
2023-01-30T13:30:10.555Z,2.80
2023-01-30T13:34:25.417Z,3.00
2023-01-30T13:38:35.994Z,3.10
2023-01-30T13:42:45.425Z,3.20
2023-01-30T13:47:00.504Z,3.20
2023-01-30T13:51:23.755Z,3.20
2023-01-30T13:55:34.183Z,3.30
2023-01-30T14:00:03.671Z,3.30
2023-01-30T14:04:40.310Z,3.40
2023-01-30T14:08:59.612Z,3.40
2023-01-30T14:13:09.968Z,3.40
2023-01-30T14:17:20.175Z,3.40
2023-01-30T14:21:28.903Z,3.40
2023-01-30T14:25:51.598Z,3.30
2023-01-30T14:30:00.167Z,3.30
2023-01-30T14:34:05.791Z,3.30
2023-01-30T14:38:15.326Z,3.30
2023-01-30T14:42:24.490Z,3.40
2023-01-30T14:46:55.083Z,3.40
2023-01-30T14:51:24.498Z,3.50
2023-01-30T14:55:30.902Z,3.50
2023-01-30T14:59:37.412Z,3.50
2023-01-30T15:03:43.386Z,3.60
2023-01-30T15:07:51.042Z,3.60
2023-01-30T15:12:03.145Z,3.60
2023-01-30T15:16:22.295Z,3.60
2023-01-30T15:25:23.395Z,3.60
2023-01-30T15:30:00.257Z,3.60
2023-01-30T15:34:11.223Z,3.60
2023-01-30T15:38:28.421Z,3.50
2023-01-30T15:42:32.892Z,3.50
2023-01-30T15:46:48.022Z,3.30
2023-01-30T15:50:54.535Z,3.30
2023-01-30T15:55:02.368Z,3.30
2023-01-30T15:59:08.016Z,3.30
2023-01-30T16:03:16.688Z,3.30
2023-01-30T16:07:27.073Z,3.40
2023-01-30T16:11:35.698Z,3.40
2023-01-30T16:15:44.648Z,3.40
2023-01-30T16:19:47.821Z,3.40
2023-01-30T16:23:56.822Z,3.40
2023-01-30T16:28:03.165Z,3.40
2023-01-30T16:32:13.619Z,3.40
2023-01-30T16:36:41.307Z,3.40
2023-01-30T16:40:46.127Z,3.30
2023-01-30T16:44:51.842Z,3.30
2023-01-30T16:49:04.670Z,3.40
2023-01-30T16:53:15.637Z,3.40
2023-01-30T16:57:34.506Z,3.40
2023-01-30T17:01:41.891Z,3.40
2023-01-30T17:05:52.063Z,3.40
2023-01-30T17:09:57.641Z,3.40
2023-01-30T17:14:30.736Z,3.40
2023-01-30T17:18:38.263Z,3.50
2023-01-30T17:22:46.057Z,3.50
2023-01-30T17:26:50.974Z,3.50
2023-01-30T17:30:55.354Z,3.60
2023-01-30T17:34:59.478Z,3.60
2023-01-30T17:39:08.353Z,3.60
2023-01-30T17:43:13.323Z,3.60
2023-01-30T17:47:18.241Z,3.60
2023-01-30T17:51:24.202Z,3.70
2023-01-30T17:55:28.708Z,3.70
2023-01-30T17:59:34.523Z,3.70
2023-01-30T18:03:37.689Z,3.70
2023-01-30T18:07:43.721Z,3.70
2023-01-30T18:11:48.961Z,3.80
2023-01-30T18:16:03.983Z,3.80
2023-01-30T18:20:07.827Z,3.70
2023-01-30T18:24:13.917Z,3.70
2023-01-30T18:28:21.262Z,3.70
2023-01-30T18:32:24.307Z,3.70
2023-01-30T18:36:30.207Z,3.80
2023-01-30T18:40:33.293Z,3.80
2023-01-30T18:44:37.768Z,3.80
2023-01-30T18:48:41.529Z,3.70
2023-01-30T18:52:44.708Z,3.70
2023-01-30T18:56:51.224Z,3.70
2023-01-30T19:00:55.715Z,3.70
2023-01-30T19:05:00.177Z,3.70
2023-01-30T19:09:03.533Z,3.80
2023-01-30T19:13:23.736Z,3.80
2023-01-30T19:17:28.276Z,3.70
2023-01-30T19:21:31.568Z,3.70
2023-01-30T19:25:34.778Z,3.70
2023-01-30T19:29:42.826Z,3.80
2023-01-30T19:33:54.556Z,3.80
2023-01-30T19:38:01.699Z,3.80
2023-01-30T19:42:04.892Z,3.80
2023-01-30T19:46:10.942Z,3.80
2023-01-30T19:50:16.457Z,3.80
2023-01-30T19:54:22.205Z,3.80
2023-01-30T19:58:27.440Z,3.80
2023-01-30T20:02:33.097Z,3.80
2023-01-30T20:06:38.855Z,3.80
2023-01-30T20:10:42.422Z,3.80
2023-01-30T20:14:48.084Z,3.90
2023-01-30T20:18:56.266Z,3.90
2023-01-30T20:23:05.448Z,3.90
2023-01-30T20:27:08.597Z,3.90
2023-01-30T20:31:13.892Z,3.90
2023-01-30T20:35:17.960Z,3.90
2023-01-30T20:39:23.406Z,3.90
2023-01-30T20:43:26.637Z,3.90
2023-01-30T20:47:29.738Z,3.90
2023-01-30T20:51:36.333Z,3.90
2023-01-30T20:55:40.844Z,3.90
2023-01-30T20:59:49.656Z,3.90
2023-01-30T21:03:56.139Z,3.90
2023-01-30T21:07:59.360Z,3.80
2023-01-30T21:12:09.020Z,3.80
2023-01-30T21:16:15.013Z,3.80
2023-01-30T21:20:18.214Z,3.80
2023-01-30T21:24:26.219Z,3.80
2023-01-30T21:28:32.068Z,3.80
2023-01-30T21:32:35.107Z,3.80
2023-01-30T21:36:38.223Z,3.90
2023-01-30T21:40:58.809Z,3.80
2023-01-30T21:45:06.846Z,3.90
2023-01-30T21:49:10.362Z,3.90
2023-01-30T21:53:16.079Z,3.90
2023-01-30T21:57:19.315Z,3.90
2023-01-30T22:01:25.274Z,3.90
2023-01-30T22:05:28.708Z,3.90
2023-01-30T22:09:31.755Z,3.90
2023-01-30T22:13:35.301Z,3.90
2023-01-30T22:17:40.311Z,3.90
2023-01-30T22:21:46.146Z,3.90
2023-01-30T22:25:56.629Z,3.90
2023-01-30T22:30:10.144Z,3.90
2023-01-30T22:34:21.709Z,3.90
2023-01-30T22:38:26.638Z,3.90
2023-01-30T22:42:29.677Z,4.00
2023-01-30T22:46:34.678Z,3.90
2023-01-30T22:50:39.359Z,3.70
2023-01-30T22:54:42.385Z,3.80
2023-01-30T22:58:45.931Z,3.80
2023-01-30T23:02:52.099Z,3.80
2023-01-30T23:06:59.735Z,3.90
2023-01-30T23:11:13.163Z,3.90
2023-01-30T23:15:20.339Z,3.90
2023-01-30T23:19:23.704Z,4.00
2023-01-30T23:23:30.250Z,4.00
2023-01-30T23:27:34.506Z,4.00
2023-01-30T23:31:38.042Z,3.90
2023-01-30T23:35:41.153Z,4.00
2023-01-30T23:39:47.974Z,4.00
2023-01-30T23:43:52.227Z,4.00
2023-01-30T23:47:55.300Z,4.00
2023-01-30T23:51:58.551Z,4.00
2023-01-30T23:56:04.569Z,4.00
